Time;durP1;ratioP1;P1;durP2;ratioP2;P2;SDS_P1;SDS_P2;PMS_P1;PMS_P2;Temp;Humidity;BMP_temperature;BMP_pressure;BME280_temperature;BME280_humidity;BME280_pressure;Samples;Min_cycle;Max_cycle;Signal;HPM_P1;HPM_P2
2023/01/02 00:01:32;;;;;;;6.50;5.27;;;10.20;80.30;;;9.98;69.43;98229.75;5087476;28;20463;-77
2023/01/02 00:04:00;;;;;;;5.27;4.27;;;10.20;80.40;;;9.89;69.79;98239.09;5087400;28;21635;-77
2023/01/02 00:06:27;;;;;;;7.93;5.20;;;10.20;80.60;;;9.99;69.03;98230.59;5092492;28;20467;-81
2023/01/02 00:08:54;;;;;;;4.60;4.20;;;10.20;80.20;;;9.91;70.19;98243.22;5087726;28;20981;-80
2023/01/02 00:11:23;;;;;;;5.47;4.47;;;10.10;80.20;;;9.98;69.29;98237.03;5071409;28;20440;-77
2023/01/02 00:13:50;;;;;;;6.00;5.03;;;10.10;80.30;;;9.75;70.18;98224.72;5092143;28;20451;-77
2023/01/02 00:16:17;;;;;;;5.80;4.70;;;9.90;81.50;;;9.69;70.48;98217.47;5069678;28;20567;-76
2023/01/02 00:18:45;;;;;;;5.50;4.13;;;9.90;81.60;;;9.63;70.51;98214.56;5080967;28;20452;-78
2023/01/02 00:21:12;;;;;;;4.97;4.47;;;9.90;81.70;;;9.54;70.39;98199.59;5088811;28;20479;-77
2023/01/02 00:23:39;;;;;;;7.27;4.60;;;9.80;81.80;;;9.55;70.69;98197.72;5060747;28;20516;-78
2023/01/02 00:26:06;;;;;;;6.00;5.20;;;9.80;81.80;;;9.67;70.85;98220.38;5092360;28;20451;-76
2023/01/02 00:28:36;;;;;;;5.30;4.10;;;9.80;81.80;;;9.60;70.82;98220.34;5077922;28;20848;-79
2023/01/02 00:31:07;;;;;;;5.13;4.53;;;9.80;81.80;;;9.47;71.03;98214.91;5085022;28;20543;-80
2023/01/02 00:33:35;;;;;;;5.23;4.73;;;9.70;81.80;;;9.58;71.17;98224.31;5090966;28;20461;-76
2023/01/02 00:36:06;;;;;;;5.70;4.90;;;9.70;81.90;;;9.47;71.05;98212.22;5095903;28;20539;-80
2023/01/02 00:38:33;;;;;;;8.10;4.90;;;9.70;81.90;;;9.42;70.76;98195.81;5084546;28;20490;-78
2023/01/02 00:41:01;;;;;;;7.77;5.40;;;9.70;81.80;;;9.49;71.04;98202.09;5089349;28;20447;-79
2023/01/02 00:43:28;;;;;;;6.10;5.10;;;9.70;81.70;;;9.46;70.58;98197.06;5090398;28;20447;-78
2023/01/02 00:45:57;;;;;;;6.90;5.20;;;9.80;81.70;;;9.50;71.19;98193.78;5092378;28;20996;-78
2023/01/02 00:48:24;;;;;;;6.43;5.37;;;9.80;81.50;;;9.58;70.50;98200.03;5096859;28;20523;-79
2023/01/02 00:50:51;;;;;;;6.00;4.50;;;9.80;81.40;;;9.57;70.48;98193.78;5090387;28;20451;-79
2023/01/02 00:53:19;;;;;;;6.90;5.67;;;9.80;81.50;;;9.07;70.72;98119.44;5098294;28;20447;-77
2023/01/02 00:55:46;;;;;;;7.90;5.90;;;9.80;81.40;;;9.59;71.16;98186.31;5093501;28;20492;-77
2023/01/02 00:58:14;;;;;;;8.27;5.83;;;9.90;81.30;;;9.58;70.89;98175.75;5092204;28;20842;-77
2023/01/02 01:00:41;;;;;;;6.00;4.40;;;9.90;81.10;;;9.63;70.11;98173.25;5085372;28;20483;-77
2023/01/02 01:03:10;;;;;;;6.83;5.30;;;10.00;80.10;;;9.67;69.96;98184.47;5092090;28;20451;-78
2023/01/02 01:05:39;;;;;;;8.43;5.27;;;10.00;80.00;;;9.59;69.68;98153.94;5089070;28;20462;-78
2023/01/02 01:08:07;;;;;;;5.67;4.80;;;10.10;79.90;;;9.78;69.81;98170.34;5088048;28;20469;-77
2023/01/02 01:10:37;;;;;;;7.03;5.47;;;10.10;79.80;;;9.84;69.02;98166.84;5068223;28;20481;-77
2023/01/02 01:13:04;;;;;;;5.83;5.23;;;10.10;79.80;;;9.84;69.66;98161.44;5067336;28;20959;-76
2023/01/02 01:15:32;;;;;;;9.37;5.20;;;10.10;79.60;;;9.78;69.51;98151.47;5096440;28;20577;-78
2023/01/02 01:18:00;;;;;;;7.67;5.10;;;10.10;79.50;;;9.80;69.72;98149.41;5091510;28;20458;-76
2023/01/02 01:20:29;;;;;;;6.20;4.93;;;10.20;79.50;;;9.96;68.55;98163.53;5074317;28;20881;-79
2023/01/02 01:22:56;;;;;;;6.80;6.10;;;10.20;79.30;;;9.87;68.09;98134.03;5091008;28;21044;-79
2023/01/02 01:25:23;;;;;;;8.73;5.80;;;10.30;79.30;;;9.98;68.27;98166.84;5096525;28;20483;-77
2023/01/02 01:27:53;;;;;;;7.57;5.40;;;10.30;79.20;;;10.07;67.97;98160.19;5074121;28;20446;-78
2023/01/02 01:30:20;;;;;;;9.20;5.37;;;10.30;79.00;;;10.07;68.01;98161.03;5094157;28;20463;-77
2023/01/02 01:32:48;;;;;;;6.03;5.00;;;10.30;78.90;;;10.04;68.07;98147.94;5092547;28;20461;-79
2023/01/02 01:35:15;;;;;;;6.13;4.93;;;10.40;78.90;;;10.08;67.79;98153.75;5094859;28;20479;-79
2023/01/02 01:37:43;;;;;;;6.17;5.13;;;10.40;78.60;;;10.21;66.81;98159.13;5091369;28;21006;-77
2023/01/02 01:40:11;;;;;;;6.30;4.83;;;10.50;78.50;;;10.24;67.30;98157.91;5088473;28;20532;-77
2023/01/02 01:42:38;;;;;;;7.80;5.63;;;10.50;78.40;;;10.32;66.92;98151.44;5070982;28;20498;-80
2023/01/02 01:45:14;;;;;;;5.17;4.53;;;10.50;78.30;;;10.33;66.92;98150.41;5073679;28;20471;-78
2023/01/02 01:47:46;;;;;;;5.83;4.30;;;10.50;78.10;;;10.22;66.38;98138.38;5093727;28;20459;-76
2023/01/02 01:50:19;;;;;;;7.57;5.80;;;10.60;78.00;;;10.44;66.56;98166.00;5072309;28;20557;-77
2023/01/02 01:52:51;;;;;;;8.33;5.90;;;10.60;78.00;;;10.40;66.24;98169.28;5090180;28;20495;-76
2023/01/02 01:55:22;;;;;;;5.70;4.80;;;10.60;77.90;;;10.27;66.20;98143.16;5092655;28;20830;-78
2023/01/02 01:57:53;;;;;;;5.53;4.67;;;10.60;77.90;;;10.25;66.64;98135.25;5072239;28;20583;-75
2023/01/02 02:00:21;;;;;;;5.23;4.73;;;10.60;77.90;;;10.36;66.02;98147.28;5092580;28;20547;-75
2023/01/02 02:02:52;;;;;;;8.50;5.70;;;10.60;77.70;;;10.43;66.33;98142.72;5066218;28;21008;-76
2023/01/02 02:05:24;;;;;;;6.20;5.20;;;10.60;77.70;;;10.38;65.80;98133.56;5090649;28;20721;-77
2023/01/02 02:08:02;;;;;;;5.43;4.93;;;10.60;77.70;;;10.48;66.41;98152.91;5068905;28;20483;-79
2023/01/02 02:10:29;;;;;;;5.80;4.80;;;10.60;77.50;;;10.11;65.79;98101.22;5074204;28;20478;-78
2023/01/02 02:12:56;;;;;;;5.73;4.90;;;10.60;77.50;;;10.35;65.89;98149.16;5070910;28;20455;-77
2023/01/02 02:15:36;;;;;;;8.83;5.00;;;10.60;77.70;;;10.30;66.85;98137.31;5088280;28;20455;-76
2023/01/02 02:18:21;;;;;;;5.87;5.27;;;10.50;77.70;;;10.30;66.64;98145.41;5082913;28;21131;-77
2023/01/02 02:20:57;;;;;;;7.63;5.37;;;10.40;77.80;;;10.29;66.46;98141.06;5069457;28;20447;-78
2023/01/02 02:24:05;;;;;;;7.30;5.50;;;10.30;77.80;;;10.15;66.62;98130.28;5098181;28;20513;-76
2023/01/02 02:26:53;;;;;;;5.80;4.80;;;10.20;78.10;;;10.11;67.45;98129.06;5076332;28;20564;-78
2023/01/02 02:30:12;;;;;;;10.10;5.30;;;10.10;78.30;;;10.11;67.49;98137.16;5100791;28;20469;-77
2023/01/02 02:33:03;;;;;;;4.90;4.40;;;10.10;78.50;;;10.11;67.61;98134.44;5081201;28;20978;-75
2023/01/02 02:35:48;;;;;;;5.60;4.47;;;10.20;78.50;;;9.95;67.69;98122.19;5071362;28;20517;-77
2023/01/02 02:38:31;;;;;;;7.20;4.50;;;10.10;78.40;;;9.94;67.09;98119.72;5090892;28;20473;-78
2023/01/02 02:41:09;;;;;;;5.93;4.80;;;10.00;78.70;;;9.99;67.63;98130.72;5085075;28;20955;-78
2023/01/02 02:43:50;;;;;;;6.13;4.87;;;10.00;78.70;;;9.87;67.60;98134.03;5068579;28;20508;-75
2023/01/02 02:46:27;;;;;;;7.30;4.60;;;9.90;79.80;;;9.88;68.16;98122.19;5096649;28;20450;-75
2023/01/02 02:49:05;;;;;;;5.73;5.13;;;9.90;79.80;;;9.95;67.70;98124.09;5077192;28;20448;-76
2023/01/02 02:51:38;;;;;;;4.70;4.13;;;10.00;78.90;;;9.85;68.42;98114.53;5088969;28;20458;-79
2023/01/02 02:54:13;;;;;;;5.03;4.53;;;9.90;79.90;;;9.75;68.37;98114.09;5079379;28;20918;-75
2023/01/02 02:56:42;;;;;;;5.40;4.90;;;9.90;79.90;;;9.84;68.28;98101.22;5090817;28;20455;-76
2023/01/02 02:59:10;;;;;;;6.30;4.37;;;10.00;78.80;;;9.75;67.99;98082.56;5089829;28;20466;-79
2023/01/02 03:01:39;;;;;;;6.93;5.10;;;10.00;78.70;;;9.95;68.48;98107.91;5088343;28;20484;-75
2023/01/02 03:04:16;;;;;;;9.63;4.90;;;10.00;78.60;;;9.90;68.44;98095.03;5069626;28;20471;-75
2023/01/02 03:07:05;;;;;;;5.57;4.47;;;10.10;78.50;;;9.74;67.68;98080.06;5085263;28;20457;-78
2023/01/02 03:09:46;;;;;;;7.13;5.17;;;10.10;78.40;;;9.96;67.42;98104.97;5089761;28;20473;-76
2023/01/02 03:12:28;;;;;;;6.37;4.87;;;10.10;78.40;;;9.87;67.38;98098.97;5078052;28;20455;-75
2023/01/02 03:15:03;;;;;;;6.60;5.10;;;10.10;78.20;;;9.96;67.94;98104.16;5091684;28;20486;-75
2023/01/02 03:17:49;;;;;;;6.40;4.57;;;10.10;78.10;;;9.90;67.32;98089.63;5070666;28;20501;-75
2023/01/02 03:20:22;;;;;;;4.90;4.40;;;10.10;78.10;;;9.94;67.26;98092.75;5086825;28;20505;-76
2023/01/02 03:22:56;;;;;;;5.80;5.13;;;10.20;78.40;;;9.96;67.83;98098.75;5090242;28;20524;-77
2023/01/02 03:25:24;;;;;;;6.13;5.00;;;10.20;78.10;;;9.97;67.58;98095.00;5087172;28;20458;-75
2023/01/02 03:27:52;;;;;;;7.90;6.10;;;10.10;78.10;;;9.82;67.81;98084.44;5087208;28;20507;-76
2023/01/02 03:30:21;;;;;;;6.23;5.63;;;10.10;78.20;;;9.94;67.38;98095.44;5085812;28;20507;-76
2023/01/02 03:32:55;;;;;;;5.50;4.90;;;10.10;78.10;;;9.81;67.93;98096.25;5068750;28;20874;-76
2023/01/02 03:35:29;;;;;;;7.13;5.13;;;10.00;78.10;;;9.78;68.15;98089.41;5086889;28;20544;-76
2023/01/02 03:37:59;;;;;;;8.53;4.77;;;10.00;78.10;;;9.77;68.49;98075.09;5063959;28;20958;-76
2023/01/02 03:40:32;;;;;;;6.40;5.00;;;10.00;78.20;;;9.64;68.07;98050.81;5086482;28;20947;-76
2023/01/02 03:43:05;;;;;;;4.83;4.43;;;10.10;78.20;;;9.82;67.87;98074.47;5065811;28;21006;-77
2023/01/02 03:45:37;;;;;;;5.40;4.90;;;10.10;78.10;;;9.71;67.82;98061.59;5070236;28;20499;-76
2023/01/02 03:48:13;;;;;;;6.07;5.10;;;10.10;78.10;;;9.80;67.77;98068.47;5052921;28;20451;-77
2023/01/02 03:50:46;;;;;;;8.50;4.97;;;10.10;78.10;;;9.71;68.42;98069.72;5087673;28;20477;-74
2023/01/02 03:53:14;;;;;;;5.80;4.70;;;10.10;78.20;;;9.81;68.21;98071.97;5081224;28;20448;-77
2023/01/02 03:55:50;;;;;;;7.37;4.70;;;10.10;78.20;;;9.85;67.57;98065.97;5065048;28;20560;-78
2023/01/02 03:58:30;;;;;;;6.27;4.97;;;10.10;78.10;;;9.84;67.84;98064.31;5069895;28;20460;-77
2023/01/02 04:01:04;;;;;;;5.30;4.77;;;10.10;78.10;;;9.91;67.92;98064.28;5091126;28;20448;-76
2023/01/02 04:03:39;;;;;;;6.90;5.67;;;10.10;78.10;;;9.81;67.95;98063.88;5093773;28;20454;-78
2023/01/02 04:06:13;;;;;;;5.13;4.63;;;10.10;78.10;;;9.82;68.45;98071.78;5094172;28;20493;-76
2023/01/02 04:08:46;;;;;;;5.70;4.60;;;10.10;78.20;;;9.77;68.69;98058.06;5094059;28;20449;-78
2023/01/02 04:11:16;;;;;;;6.00;5.40;;;10.10;78.20;;;9.89;67.90;98071.78;5078146;28;20468;-75
2023/01/02 04:13:49;;;;;;;4.97;4.47;;;10.10;78.20;;;9.92;67.67;98069.47;5075184;28;20705;-75
2023/01/02 04:16:21;;;;;;;6.80;5.60;;;10.10;78.10;;;9.85;68.52;98068.66;5092941;28;20508;-78
2023/01/02 04:18:55;;;;;;;6.00;4.80;;;10.10;78.20;;;9.84;67.83;98069.69;5099293;28;20545;-75
2023/01/02 04:21:26;;;;;;;9.27;4.90;;;10.10;78.10;;;9.91;67.71;98065.09;5093398;28;20479;-75
2023/01/02 04:24:00;;;;;;;5.80;5.00;;;10.20;78.20;;;9.89;67.39;98077.97;5094159;28;20466;-75
2023/01/02 04:26:33;;;;;;;5.50;4.20;;;10.20;78.10;;;9.46;68.44;98002.91;5074957;28;21054;-76
2023/01/02 04:29:02;;;;;;;5.47;4.90;;;10.20;78.40;;;9.94;67.95;98068.44;5091719;28;20444;-80
2023/01/02 04:31:39;;;;;;;6.73;4.80;;;10.20;78.00;;;10.06;67.20;98077.53;5091148;28;20470;-77
2023/01/02 04:34:13;;;;;;;6.60;4.83;;;10.30;78.00;;;9.97;67.30;98084.22;5092239;28;20449;-76
2023/01/02 04:36:42;;;;;;;4.40;4.00;;;10.20;77.90;;;10.09;67.51;98087.94;5072392;28;20450;-78
2023/01/02 04:39:09;;;;;;;5.70;4.80;;;10.20;78.00;;;9.92;68.05;98077.56;5093667;28;20460;-77
2023/01/02 04:41:40;;;;;;;6.97;5.40;;;10.20;77.90;;;10.01;67.05;98080.91;5072361;28;21033;-76
2023/01/02 04:44:08;;;;;;;7.57;4.67;;;10.30;78.00;;;10.02;67.42;98085.25;5063006;28;20458;-77
2023/01/02 04:46:35;;;;;;;5.43;4.93;;;10.20;78.10;;;9.93;68.33;98091.91;5075036;28;20438;-78
2023/01/02 04:49:02;;;;;;;5.00;4.50;;;10.20;78.10;;;9.86;67.89;98066.81;5092563;28;20455;-77
2023/01/02 04:51:31;;;;;;;6.80;4.97;;;10.20;78.10;;;9.97;67.69;98095.00;5065866;28;20895;-78
2023/01/02 04:53:58;;;;;;;5.50;5.03;;;10.20;78.10;;;10.04;67.77;98096.66;5089760;28;20459;-78
2023/01/02 04:56:25;;;;;;;8.77;5.63;;;10.20;78.20;;;10.02;67.79;98089.81;5093645;28;20458;-76
2023/01/02 04:58:53;;;;;;;6.50;4.90;;;10.20;78.30;;;9.88;67.71;98078.22;5093730;28;20469;-77
2023/01/02 05:01:25;;;;;;;7.57;5.60;;;10.10;78.30;;;9.87;67.92;98093.56;5089648;28;20483;-79
2023/01/02 05:03:52;;;;;;;7.00;5.40;;;10.00;78.40;;;9.80;68.15;98095.44;5092308;28;20457;-80
2023/01/02 05:06:19;;;;;;;7.50;5.10;;;10.00;78.40;;;9.85;68.59;98095.63;5071000;28;20450;-75
2023/01/02 05:08:48;;;;;;;7.10;4.90;;;10.00;78.50;;;9.55;68.99;98077.19;5090412;28;20458;-76
2023/01/02 05:11:19;;;;;;;5.97;5.23;;;9.90;79.40;;;9.76;68.09;98091.47;5086128;28;20955;-74
2023/01/02 05:13:46;;;;;;;7.20;4.30;;;9.90;79.50;;;9.77;67.94;98085.03;5086979;28;20931;-75
2023/01/02 05:16:14;;;;;;;6.30;5.10;;;9.90;79.60;;;9.70;69.39;98097.72;5091053;28;20456;-75
2023/01/02 05:18:41;;;;;;;5.40;4.20;;;9.90;79.60;;;8.66;68.23;97917.50;5074770;28;20861;-77
2023/01/02 05:23:47;;;;;;;5.53;4.83;;;9.90;79.60;;;9.66;68.80;98089.22;5092679;28;20427;-76
2023/01/02 05:24:01;;;;;;;7.90;5.80;;;9.90;79.80;;;9.69;69.52;98091.47;5071969;28;20441;-76
2023/01/02 05:26:31;;;;;;;5.33;4.83;;;9.80;79.70;;;9.55;69.23;98093.38;5073195;28;20451;-75
2023/01/02 05:29:00;;;;;;;8.27;6.07;;;9.80;79.80;;;9.57;69.00;98099.38;5074501;28;20765;-75
2023/01/02 05:31:27;;;;;;;7.90;5.70;;;9.80;79.80;;;9.48;69.16;98093.34;5078582;28;20998;-76
2023/01/02 05:33:57;;;;;;;8.10;5.73;;;9.80;79.80;;;9.45;69.53;98101.03;5091836;28;20512;-78
2023/01/02 05:36:26;;;;;;;5.33;4.83;;;9.80;79.90;;;9.45;69.35;98101.88;5091220;28;20441;-78
2023/01/02 05:38:53;;;;;;;7.50;5.47;;;9.70;79.80;;;9.41;69.44;98086.31;5091649;28;20729;-76
2023/01/02 05:41:22;;;;;;;6.90;5.10;;;9.70;79.90;;;9.28;69.33;98069.06;5094780;28;20552;-75
2023/01/02 05:43:49;;;;;;;6.47;5.73;;;9.70;79.90;;;9.37;69.38;98099.34;5093085;28;20903;-78
2023/01/02 05:46:19;;;;;;;7.43;5.37;;;9.70;79.90;;;9.47;69.21;98102.50;5085500;28;20841;-76
2023/01/02 05:48:47;;;;;;;6.70;5.30;;;9.60;80.00;;;9.49;70.13;98108.50;5085691;28;20531;-79
2023/01/02 05:51:17;;;;;;;6.97;4.90;;;9.70;80.00;;;9.40;69.50;98106.22;5091005;28;21066;-78
2023/01/02 05:53:45;;;;;;;6.03;5.43;;;9.60;80.00;;;9.47;70.02;98107.03;5072112;28;20463;-78
2023/01/02 05:56:13;;;;;;;7.03;5.53;;;9.70;80.00;;;9.47;70.00;98109.72;5091533;28;20451;-76
2023/01/02 05:58:45;;;;;;;6.47;5.10;;;9.60;80.00;;;9.45;69.58;98109.13;5088706;28;21893;-75
2023/01/02 06:01:15;;;;;;;7.20;4.93;;;9.60;80.00;;;9.39;69.42;98105.38;5089035;28;20450;-76
2023/01/02 06:03:45;;;;;;;6.13;5.20;;;9.60;80.00;;;9.37;69.37;98085.06;5088968;28;20462;-77
2023/01/02 06:06:13;;;;;;;5.37;4.53;;;9.60;80.00;;;9.49;69.71;98110.38;5074672;28;20489;-76
2023/01/02 06:08:40;;;;;;;7.80;4.63;;;9.60;80.00;;;9.30;69.74;98085.88;5093601;28;20458;-70
2023/01/02 06:11:07;;;;;;;5.73;5.00;;;9.60;80.00;;;9.43;69.63;98105.78;5084847;28;20498;-68
2023/01/02 06:13:37;;;;;;;5.17;4.67;;;9.60;79.80;;;9.45;69.43;98092.94;5082124;28;20458;-69
2023/01/02 06:16:09;;;;;;;6.60;5.50;;;9.70;79.80;;;9.52;69.23;98099.19;5089177;28;20494;-71
2023/01/02 06:18:38;;;;;;;6.33;5.30;;;9.70;79.70;;;9.51;68.87;98108.31;5089486;28;20463;-69
2023/01/02 06:21:07;;;;;;;6.73;5.10;;;9.70;79.80;;;9.70;69.05;98112.03;5083644;28;21070;-72
2023/01/02 06:23:35;;;;;;;6.30;5.30;;;9.90;79.90;;;9.59;68.45;98102.69;5071053;28;20447;-69
2023/01/02 06:26:05;;;;;;;7.47;5.60;;;9.80;79.50;;;9.69;69.07;98099.56;5076150;28;20534;-73
2023/01/02 06:28:32;;;;;;;5.50;4.50;;;9.90;80.50;;;9.57;68.77;98093.97;5079859;28;20535;-71
2023/01/02 06:31:01;;;;;;;6.07;5.10;;;9.90;79.50;;;9.73;68.48;98110.78;5087219;28;20583;-72
2023/01/02 06:33:30;;;;;;;8.60;5.37;;;9.90;79.50;;;9.69;68.49;98098.75;5093117;28;20466;-72
2023/01/02 06:35:58;;;;;;;6.60;5.20;;;9.90;79.90;;;9.75;68.13;98108.72;5086429;28;20516;-73
2023/01/02 06:38:25;;;;;;;5.63;4.83;;;10.00;78.40;;;9.78;68.13;98113.69;5083426;28;20549;-78
2023/01/02 06:40:54;;;;;;;6.53;5.40;;;10.00;78.30;;;9.71;68.35;98102.94;5086972;28;20532;-77
2023/01/02 06:43:21;;;;;;;5.10;4.30;;;10.00;78.20;;;9.84;68.08;98110.19;5068611;28;20543;-76
2023/01/02 06:45:48;;;;;;;5.73;4.90;;;10.00;78.20;;;9.90;67.58;98117.41;5066194;28;20517;-76
2023/01/02 06:48:16;;;;;;;7.10;4.73;;;10.00;78.20;;;9.55;67.45;98076.34;5067214;28;20783;-76
2023/01/02 06:50:45;;;;;;;5.50;4.43;;;10.00;78.10;;;9.72;67.51;98114.53;5087399;28;20474;-74
2023/01/02 06:53:13;;;;;;;6.17;4.47;;;10.00;78.00;;;9.67;68.09;98106.25;5087808;28;20463;-83
2023/01/02 06:55:40;;;;;;;6.80;4.77;;;9.90;79.10;;;9.87;67.84;98122.44;5086515;28;20457;-76
2023/01/02 06:58:07;;;;;;;6.53;5.07;;;10.00;78.10;;;9.88;67.68;98119.50;5061872;28;20513;-76
2023/01/02 07:00:34;;;;;;;5.03;4.23;;;10.00;78.10;;;9.88;67.47;98130.31;5083355;28;20488;-76
2023/01/02 07:03:01;;;;;;;6.27;4.80;;;10.00;78.10;;;9.83;68.11;98132.81;5087481;28;20507;-75
2023/01/02 07:05:28;;;;;;;6.50;5.50;;;9.90;79.20;;;9.77;68.21;98134.47;5089988;28;20551;-76
2023/01/02 07:07:57;;;;;;;8.63;5.60;;;9.90;79.20;;;9.67;67.47;98133.22;5084386;28;20555;-74
2023/01/02 07:10:24;;;;;;;5.47;4.83;;;9.80;79.30;;;9.58;67.78;98101.03;5103251;28;20454;-74
2023/01/02 07:12:51;;;;;;;4.70;4.30;;;9.80;79.40;;;9.70;68.77;98122.00;5091217;28;20442;-76
2023/01/02 07:15:18;;;;;;;12.13;6.23;;;9.90;79.40;;;9.76;68.41;98121.16;5084663;28;20543;-75
2023/01/02 07:17:46;;;;;;;6.47;5.00;;;9.90;79.50;;;9.59;68.68;98132.38;5090265;28;20505;-77
2023/01/02 07:20:13;;;;;;;5.30;4.50;;;9.80;79.30;;;9.63;68.65;98130.94;5078137;28;20462;-76
2023/01/02 07:22:40;;;;;;;6.10;4.40;;;9.80;79.30;;;9.63;68.30;98139.03;5080082;28;20609;-77
2023/01/02 07:25:10;;;;;;;6.57;4.70;;;9.80;79.40;;;9.64;68.31;98134.44;5082721;28;21728;-74
2023/01/02 07:27:37;;;;;;;6.60;4.53;;;9.80;79.30;;;9.73;68.48;98127.81;5082778;28;20551;-75
2023/01/02 07:30:05;;;;;;;5.53;4.53;;;9.90;79.30;;;9.72;68.08;98131.56;5092406;28;20455;-75
2023/01/02 07:32:32;;;;;;;4.80;4.30;;;9.90;79.30;;;9.69;68.35;98131.94;5088375;28;20465;-75
2023/01/02 07:35:00;;;;;;;6.40;4.63;;;9.90;79.20;;;9.80;67.83;98138.63;5077971;28;20741;-75
2023/01/02 07:37:27;;;;;;;6.53;4.30;;;9.90;79.20;;;9.74;68.00;98128.63;5084480;28;20462;-76
2023/01/02 07:39:54;;;;;;;6.60;4.70;;;9.90;79.10;;;9.82;68.19;98144.63;5078787;28;20510;-77
2023/01/02 07:42:23;;;;;;;6.20;4.70;;;9.90;79.20;;;9.73;68.21;98138.63;5066226;28;20450;-77
2023/01/02 07:44:50;;;;;;;10.00;5.10;;;9.90;79.10;;;9.77;67.62;98134.47;5085956;28;21162;-76
2023/01/02 07:47:17;;;;;;;10.73;5.90;;;10.00;78.10;;;9.97;67.83;98157.09;5068458;28;20506;-76
2023/01/02 07:49:44;;;;;;;8.37;4.90;;;10.00;78.60;;;10.00;67.25;98153.97;5067950;28;20959;-75
2023/01/02 07:52:11;;;;;;;5.57;4.60;;;10.10;78.10;;;10.02;67.78;98157.28;5067549;28;20551;-75
2023/01/02 07:54:38;;;;;;;13.37;5.07;;;10.10;78.00;;;9.98;67.21;98156.06;5073517;28;20518;-74
2023/01/02 07:57:06;;;;;;;6.30;5.30;;;10.10;78.00;;;9.94;67.11;98157.50;5073498;28;20463;-75
2023/01/02 07:59:34;;;;;;;7.87;5.40;;;10.10;77.80;;;9.96;67.32;98158.94;5069246;28;20454;-76
2023/01/02 08:02:02;;;;;;;4.97;4.47;;;10.10;78.00;;;9.80;67.90;98157.50;5081444;28;20493;-73
2023/01/02 08:04:29;;;;;;;5.20;4.67;;;10.00;77.70;;;9.93;67.80;98153.97;5081242;28;20521;-76
2023/01/02 08:06:56;;;;;;;4.53;3.90;;;10.00;77.80;;;9.93;66.53;98153.97;5080376;28;20516;-75
2023/01/02 08:09:23;;;;;;;7.87;5.20;;;10.00;77.70;;;9.92;66.95;98150.44;5083911;28;20491;-75
2023/01/02 08:11:50;;;;;;;5.57;4.70;;;10.10;77.70;;;10.10;66.35;98159.78;5090871;28;20487;-75
2023/01/02 08:14:18;;;;;;;6.30;4.87;;;10.10;77.70;;;9.92;67.52;98163.94;5090816;28;20455;-76
2023/01/02 08:16:46;;;;;;;5.23;4.53;;;10.10;77.70;;;9.60;67.60;98104.34;5067788;28;20619;-76
2023/01/02 08:19:15;;;;;;;7.10;4.93;;;10.10;77.80;;;10.06;66.95;98169.31;5081497;28;20460;-75
2023/01/02 08:21:44;;;;;;;8.50;4.27;;;10.10;77.80;;;10.00;66.28;98153.97;5080085;28;20452;-84
2023/01/02 08:24:11;;;;;;;8.47;6.00;;;10.10;77.60;;;10.16;66.25;98164.34;5066887;28;20456;-76
2023/01/02 08:26:38;;;;;;;8.20;5.53;;;10.20;77.50;;;10.19;66.51;98157.69;5087534;28;20851;-82
2023/01/02 08:29:07;;;;;;;18.20;6.77;;;10.30;77.60;;;10.40;65.54;98166.59;5086143;28;20455;-79
2023/01/02 08:31:35;;;;;;;7.90;5.47;;;10.30;77.60;;;10.51;65.06;98167.84;5076714;28;20465;-79
2023/01/02 08:34:04;;;;;;;8.30;5.50;;;10.40;77.40;;;10.53;65.21;98168.47;5093532;28;20450;-75
2023/01/02 08:36:31;;;;;;;6.57;5.67;;;10.50;77.00;;;10.21;65.48;98113.22;5090633;28;20958;-75
2023/01/02 08:38:58;;;;;;;6.77;5.67;;;10.60;77.10;;;10.61;64.71;98176.34;5075498;28;20498;-76
2023/01/02 08:41:33;;;;;;;9.00;6.40;;;10.60;76.90;;;10.47;64.49;98154.75;5094769;28;20448;-74
2023/01/02 08:44:01;;;;;;;7.17;6.47;;;10.60;76.80;;;10.80;64.40;98180.03;5087474;28;20474;-76
2023/01/02 08:46:28;;;;;;;9.27;7.30;;;10.70;76.80;;;10.78;64.30;98174.03;5078078;28;20968;-76
2023/01/02 08:48:55;;;;;;;11.23;6.80;;;10.80;76.60;;;10.93;64.04;98179.16;5093717;28;20485;-75
2023/01/02 08:51:24;;;;;;;8.23;6.10;;;10.90;76.20;;;10.97;63.98;98190.38;5089442;28;20481;-75
2023/01/02 08:53:51;;;;;;;5.77;4.80;;;11.00;76.00;;;10.84;62.92;98167.75;5070872;28;20924;-77
2023/01/02 08:56:21;;;;;;;6.37;4.80;;;11.10;75.80;;;11.03;63.36;98186.81;5065312;28;20482;-77
2023/01/02 08:58:53;;;;;;;6.63;4.43;;;11.10;75.80;;;10.95;63.59;98181.66;5083248;28;21006;-77
2023/01/02 09:01:22;;;;;;;6.03;4.77;;;11.10;75.80;;;11.22;62.63;98182.34;5085404;28;20552;-76
2023/01/02 09:03:49;;;;;;;6.20;4.63;;;11.20;75.60;;;11.42;63.35;98198.50;5087875;28;20487;-77
2023/01/02 09:06:16;;;;;;;4.43;3.93;;;11.30;76.40;;;11.29;62.55;98183.16;5085048;28;20482;-79
2023/01/02 09:08:45;;;;;;;8.53;4.63;;;11.40;75.40;;;11.44;61.90;98196.41;5075457;28;21205;-78
2023/01/02 09:11:14;;;;;;;7.40;4.40;;;11.40;74.90;;;11.65;61.33;98190.88;5082526;28;20579;-79
2023/01/02 09:13:42;;;;;;;5.87;4.87;;;11.60;75.00;;;11.58;61.21;98201.72;5068512;28;20445;-79
2023/01/02 09:16:10;;;;;;;4.30;3.90;;;11.70;74.30;;;11.30;60.62;98157.78;5088023;28;20536;-76
2023/01/02 09:18:38;;;;;;;6.30;4.30;;;11.70;74.00;;;11.75;60.53;98202.03;5090160;28;20459;-77
2023/01/02 09:21:06;;;;;;;7.43;4.60;;;11.80;74.50;;;11.75;60.59;98196.59;5080934;28;20466;-77
2023/01/02 09:23:34;;;;;;;8.57;4.90;;;11.80;73.90;;;11.85;59.95;98212.41;5082943;28;21155;-76
2023/01/02 09:26:06;;;;;;;5.37;4.53;;;11.90;73.50;;;11.75;60.35;98202.03;5079511;28;20893;-78
2023/01/02 09:28:36;;;;;;;6.07;4.20;;;11.90;73.10;;;11.64;60.85;98216.28;5085461;28;20455;-77
2023/01/02 09:31:05;;;;;;;9.93;4.03;;;11.90;73.10;;;12.11;59.64;98211.38;5068578;28;20555;-77
2023/01/02 09:33:33;;;;;;;5.10;4.30;;;12.00;73.10;;;12.03;59.54;98203.53;5072650;28;20475;-77
2023/01/02 09:36:02;;;;;;;5.67;4.00;;;12.10;72.80;;;12.08;59.58;98214.53;5085952;28;20480;-77
2023/01/02 09:38:29;;;;;;;4.93;3.90;;;12.10;72.60;;;12.12;59.22;98218.47;5088080;28;20554;-77
2023/01/02 09:41:00;;;;;;;5.20;3.63;;;12.20;72.30;;;12.21;59.12;98227.13;5085585;28;20537;-77
2023/01/02 09:43:35;;;;;;;5.00;4.23;;;12.20;72.20;;;12.17;59.17;98199.66;5064800;28;21165;-77
2023/01/02 09:46:05;;;;;;;5.50;3.53;;;12.30;72.10;;;12.25;59.04;98225.63;5069404;28;20509;-77
2023/01/02 09:48:36;;;;;;;4.57;4.10;;;12.40;71.90;;;12.46;58.58;98218.19;5086572;28;20538;-77
2023/01/02 09:51:05;;;;;;;9.30;4.20;;;12.50;71.90;;;12.21;58.33;98164.00;5069111;28;20794;-77
2023/01/02 09:53:33;;;;;;;5.80;4.30;;;12.50;71.70;;;12.51;57.76;98187.69;5067809;28;20943;-76
2023/01/02 09:56:10;;;;;;;3.80;3.50;;;12.70;71.10;;;12.85;57.56;98212.59;5064656;28;20535;-78
2023/01/02 09:58:47;;;;;;;4.83;3.50;;;12.80;71.00;;;12.78;57.56;98214.50;5086424;28;20471;-77
2023/01/02 10:01:28;;;;;;;4.00;3.60;;;12.90;70.90;;;13.14;56.85;98219.13;5086426;28;20509;-78
2023/01/02 10:04:07;;;;;;;4.67;3.70;;;13.00;70.80;;;12.80;57.65;98218.66;5062911;28;20455;-76
2023/01/02 10:06:43;;;;;;;4.83;3.80;;;13.00;70.40;;;13.04;57.11;98225.06;5070893;28;20915;-77
2023/01/02 10:09:17;;;;;;;4.50;3.20;;;13.00;70.20;;;12.95;57.10;98217.47;5058016;28;20482;-78
2023/01/02 10:11:58;;;;;;;4.93;3.63;;;13.00;69.90;;;12.91;57.41;98216.28;5086338;28;20972;-78
2023/01/02 10:14:37;;;;;;;6.13;3.60;;;13.00;70.00;;;12.89;57.22;98205.66;5069548;28;20467;-77
2023/01/02 10:17:07;;;;;;;4.10;3.70;;;13.00;69.90;;;12.74;56.93;98155.34;5083739;28;20463;-79
2023/01/02 10:19:42;;;;;;;5.17;4.23;;;13.10;69.70;;;13.41;56.01;98218.78;5069117;28;20451;-76
2023/01/02 10:22:14;;;;;;;6.00;3.43;;;13.30;69.60;;;13.40;56.05;98205.44;5088047;28;20478;-78
2023/01/02 10:24:46;;;;;;;4.17;3.77;;;13.50;69.40;;;13.45;55.71;98208.34;5080339;28;21129;-79
2023/01/02 10:27:21;;;;;;;5.67;3.90;;;13.50;69.10;;;13.45;55.97;98213.75;5069361;28;21171;-79
2023/01/02 10:30:03;;;;;;;5.50;3.10;;;13.50;69.30;;;13.43;55.89;98215.84;5065864;28;20452;-79
2023/01/02 10:32:33;;;;;;;5.80;3.50;;;13.50;68.90;;;13.41;55.93;98215.22;5087025;28;20553;-78
2023/01/02 10:35:13;;;;;;;3.87;2.97;;;13.50;68.70;;;13.37;55.86;98222.19;5081702;28;21269;-77
2023/01/02 10:37:40;;;;;;;6.07;3.40;;;13.50;68.50;;;13.36;56.26;98217.81;5083694;28;20455;-78
2023/01/02 10:40:09;;;;;;;5.23;4.10;;;13.50;68.80;;;13.25;56.93;98220.22;5071313;28;20514;-79